메인 페이지
METAR-TAF:

METAR-TAF

공항 :

부다페스트 리스트 페렌츠 국제공항

부다페스트, 헝가리

위도: 47-26N, 경도: 019-16E, 고도: 151m

현재 날씨관측

예보는 20분 전, 15:00시(UTC)에 발표되었습니다.
남서3kt
온도 3°C
습도 70%
기압 1016 hPa
시정 10km 이상
1500m 미만 상공 구름 및 적란운 없음

METAR: LHBP 111500Z 23003KT CAVOK 03/M02 Q1016 NOSIG

시각: 16:20 (15:20 UTC)

예보

예보는 4 시간 5분 전, 11:15시(UTC)에 발표되었습니다.
예보 대상 시간: 11일 12시부터 12일 12시까지 (UTC)
여러 방향의 바람 3kt
시정 10km 이상
1500m 미만 상공 구름 및 적란운 없음
전환 중
11일 19시부터 11일 22시까지 (UTC)
고도 2500ft 상공 구름 많음
전환 중
11일 23시부터 12일 01시까지 (UTC)
6kt
일시적
12일 00시부터 12일 07시까지 (UTC)
시정: 4000m
고도 900ft 상공 흐림
약한눈, 비, 박무
일시적
12일 07시부터 12일 12시까지 (UTC)
고도 1500ft 상공 구름 보통
고도 4000ft 상공 구름 많음
약한비

TAF: LHBP 111115Z 1112/1212 VRB03KT CAVOK BECMG 1119/1122 BKN025 BECMG 1123/1201 09006KT TEMPO 1200/1207 4000 -SNRA BR OVC009 TEMPO 1207/1212 -RA SCT015 BKN040

4,000개 이상의 공항 관측 자료 및 예보 (METAR 및 TAF 보고).

지도상에서 검색 가능한 기상관측소가 노란 점과 빨간 점으로 표시되어 있습니다.

기상관측소 명을 보려면 표시 위로 마우스를 이동하세요.

날씨 관측과 예보를 보려면 클릭하세요.

지도 변경 : 확대하려면 엑스 표시가 있는 녹색 버튼, 축소하려면 빼기 표시가 있는 녹색 버튼, 다음 페이지의 지도를 보려면 녹색 화살표를 클릭하세요.


METAR-TAF: